createdAt,value
2019-03-11T00:02:14.081Z,55.58
2019-03-11T00:04:45.809Z,55.65
2019-03-11T00:07:16.434Z,55.71
2019-03-11T00:09:48.158Z,55.75
2019-03-11T00:12:19.512Z,55.81
2019-03-11T00:14:49.784Z,55.90
2019-03-11T00:17:20.334Z,55.98
2019-03-11T00:19:50.968Z,56.02
2019-03-11T00:22:21.589Z,56.07
2019-03-11T00:24:51.893Z,56.11
2019-03-11T00:27:22.454Z,56.15
2019-03-11T00:29:52.905Z,56.16
2019-03-11T00:32:23.102Z,56.22
2019-03-11T00:34:53.714Z,56.24
2019-03-11T00:37:23.977Z,56.24
2019-03-11T00:39:54.181Z,56.22
2019-03-11T00:42:24.664Z,56.25
2019-03-11T00:44:55.227Z,56.26
2019-03-11T00:47:25.505Z,56.27
2019-03-11T00:49:56.072Z,56.26
2019-03-11T00:52:26.815Z,56.26
2019-03-11T00:54:57.401Z,56.28
2019-03-11T00:57:27.698Z,56.29
2019-03-11T00:59:57.916Z,56.31
2019-03-11T01:02:28.126Z,56.32
2019-03-11T01:04:58.324Z,56.35
2019-03-11T01:07:28.546Z,56.37
2019-03-11T01:09:58.757Z,56.41
2019-03-11T01:12:28.990Z,56.43
2019-03-11T01:14:59.195Z,56.43
2019-03-11T01:17:29.421Z,56.48
2019-03-11T01:19:59.645Z,56.50
2019-03-11T01:22:29.852Z,56.52
2019-03-11T01:25:00.256Z,56.55
2019-03-11T01:27:31.034Z,56.57
2019-03-11T01:30:01.700Z,56.61
2019-03-11T01:32:32.519Z,56.66
2019-03-11T01:35:02.746Z,56.69
2019-03-11T01:37:32.951Z,56.73
2019-03-11T01:40:03.205Z,56.76
2019-03-11T01:42:33.418Z,56.80
2019-03-11T01:45:05.258Z,56.87
2019-03-11T01:47:35.846Z,56.88
2019-03-11T01:50:08.178Z,56.91
2019-03-11T01:52:38.418Z,56.95
2019-03-11T01:55:14.044Z,57.00
2019-03-11T01:57:44.431Z,57.03
2019-03-11T02:00:17.051Z,57.09
2019-03-11T02:02:47.361Z,57.14
2019-03-11T02:05:17.901Z,57.18
2019-03-11T02:07:48.176Z,57.23
2019-03-11T02:10:19.514Z,57.27
2019-03-11T02:12:50.076Z,57.33
2019-03-11T02:15:20.739Z,57.38
2019-03-11T02:17:51.291Z,57.42
2019-03-11T02:20:21.937Z,57.46
2019-03-11T02:22:52.207Z,57.51
2019-03-11T02:25:22.772Z,57.56
2019-03-11T02:27:53.045Z,57.60
2019-03-11T02:30:23.328Z,57.65
2019-03-11T02:32:53.877Z,57.68
2019-03-11T02:35:29.378Z,57.72
2019-03-11T02:38:00.574Z,57.76
2019-03-11T02:40:31.589Z,57.80
2019-03-11T02:43:01.893Z,57.85
2019-03-11T02:45:32.517Z,57.92
2019-03-11T02:48:02.785Z,57.95
2019-03-11T02:50:33.022Z,57.98
2019-03-11T02:53:03.228Z,58.03
2019-03-11T02:55:33.452Z,58.09
2019-03-11T02:58:05.259Z,58.15
2019-03-11T03:00:35.831Z,58.18
2019-03-11T03:03:09.139Z,58.21
2019-03-11T03:05:43.893Z,58.27
2019-03-11T03:08:14.521Z,58.32
2019-03-11T03:10:45.408Z,58.38
2019-03-11T03:13:15.684Z,58.42
2019-03-11T03:15:46.279Z,58.46
2019-03-11T03:18:16.546Z,58.51
2019-03-11T03:20:46.795Z,58.55
2019-03-11T03:23:17.030Z,58.58
2019-03-11T03:25:47.582Z,58.63
2019-03-11T03:28:18.406Z,58.69
2019-03-11T03:30:48.608Z,58.75
2019-03-11T03:33:18.927Z,58.80
2019-03-11T03:35:49.123Z,58.84
2019-03-11T03:38:30.272Z,58.91
2019-03-11T03:40:52.077Z,58.95
2019-03-11T03:43:22.802Z,59.02
2019-03-11T03:45:53.151Z,59.07
2019-03-11T03:48:23.768Z,59.13
2019-03-11T03:50:54.079Z,59.21
2019-03-11T03:53:24.304Z,59.23
2019-03-11T03:55:54.508Z,59.31
2019-03-11T03:58:24.744Z,59.38
2019-03-11T04:00:54.980Z,59.42
2019-03-11T04:03:25.201Z,59.46
2019-03-11T04:05:55.478Z,59.53
2019-03-11T04:08:25.712Z,59.57
2019-03-11T04:10:55.933Z,59.62
2019-03-11T04:13:26.167Z,59.70
2019-03-11T04:15:56.366Z,59.73
2019-03-11T04:18:29.634Z,59.75
2019-03-11T04:21:00.019Z,59.80
2019-03-11T04:23:30.293Z,59.87
2019-03-11T04:26:00.883Z,59.89
2019-03-11T04:28:31.192Z,59.94
2019-03-11T04:31:01.842Z,60.00
2019-03-11T04:33:32.542Z,60.02
2019-03-11T04:36:03.164Z,60.07
2019-03-11T04:38:35.421Z,60.12
2019-03-11T04:41:06.051Z,60.16
2019-03-11T04:43:37.847Z,60.19
2019-03-11T04:46:08.476Z,60.22
2019-03-11T04:48:39.109Z,60.25
2019-03-11T04:51:09.756Z,60.29
2019-03-11T04:53:40.395Z,60.29
2019-03-11T04:56:10.670Z,60.32
2019-03-11T04:58:41.226Z,60.35
2019-03-11T05:01:11.523Z,60.35
2019-03-11T05:03:41.747Z,60.38
2019-03-11T05:06:11.955Z,60.41
2019-03-11T05:08:42.159Z,60.42
2019-03-11T05:11:12.390Z,60.46
2019-03-11T05:13:42.617Z,60.51
2019-03-11T05:16:13.174Z,60.55
2019-03-11T05:18:43.473Z,60.55
2019-03-11T05:21:13.696Z,60.60
2019-03-11T05:23:45.354Z,60.63
2019-03-11T05:26:15.659Z,60.67
2019-03-11T05:28:45.903Z,60.71
2019-03-11T05:31:16.512Z,60.75
2019-03-11T05:33:46.839Z,60.76
2019-03-11T05:36:17.419Z,60.78
2019-03-11T05:38:47.705Z,60.81
2019-03-11T05:41:18.265Z,60.85
2019-03-11T05:43:49.686Z,60.89
2019-03-11T05:46:20.272Z,60.95
2019-03-11T05:48:50.565Z,61.00
2019-03-11T05:51:30.857Z,61.07
2019-03-11T05:53:52.686Z,61.14
2019-03-11T05:56:23.295Z,61.25
2019-03-11T05:58:53.917Z,61.33
2019-03-11T06:01:25.039Z,61.40
2019-03-11T06:03:55.595Z,61.53
2019-03-11T06:06:26.248Z,61.66
2019-03-11T06:08:57.738Z,61.67
2019-03-11T06:11:28.517Z,61.69
2019-03-11T06:14:00.313Z,61.77
2019-03-11T06:16:30.712Z,61.88
2019-03-11T06:19:01.258Z,61.90
2019-03-11T06:21:36.673Z,61.91
2019-03-11T06:24:06.942Z,62.05
2019-03-11T06:26:37.163Z,62.16
2019-03-11T06:29:07.374Z,62.29
2019-03-11T06:31:37.944Z,62.38
2019-03-11T06:34:08.255Z,62.39
2019-03-11T06:36:38.458Z,62.39
2019-03-11T06:39:08.757Z,62.54
2019-03-11T06:41:39.007Z,62.63
2019-03-11T06:44:09.227Z,62.62
2019-03-11T06:46:39.440Z,62.57
2019-03-11T06:49:10.717Z,62.59
2019-03-11T06:51:41.275Z,62.59
2019-03-11T06:54:11.554Z,62.61
2019-03-11T06:56:41.810Z,62.58
2019-03-11T06:59:12.019Z,62.40
2019-03-11T07:01:42.228Z,62.32
2019-03-11T07:04:12.459Z,62.24
2019-03-11T07:06:42.705Z,62.12
2019-03-11T07:09:13.306Z,62.05
2019-03-11T07:11:43.571Z,62.04
2019-03-11T07:14:14.149Z,62.11
2019-03-11T07:16:44.816Z,62.28
2019-03-11T07:19:15.464Z,62.40
2019-03-11T07:21:46.065Z,62.40
2019-03-11T07:24:16.353Z,62.29
2019-03-11T07:26:47.747Z,62.18
2019-03-11T07:29:18.310Z,62.15
2019-03-11T07:31:48.598Z,62.14
2019-03-11T07:34:18.903Z,62.12
2019-03-11T07:36:49.157Z,62.12
2019-03-11T07:39:19.709Z,62.14
2019-03-11T07:41:50.334Z,62.08
2019-03-11T07:44:20.952Z,62.09
2019-03-11T07:46:51.597Z,62.17
2019-03-11T07:49:21.873Z,62.19
2019-03-11T07:51:52.092Z,62.16
2019-03-11T07:54:22.643Z,62.04
2019-03-11T07:56:52.936Z,61.90
2019-03-11T07:59:23.150Z,61.80
2019-03-11T08:01:53.755Z,61.75
2019-03-11T08:04:24.035Z,61.73
2019-03-11T08:06:54.657Z,61.73
2019-03-11T08:09:37.042Z,61.71
2019-03-11T08:11:57.368Z,61.70
2019-03-11T08:14:28.059Z,61.70
2019-03-11T08:16:58.738Z,61.62
2019-03-11T08:19:29.370Z,61.58
2019-03-11T08:22:00.006Z,61.50
2019-03-11T08:24:30.315Z,61.51
2019-03-11T08:27:00.515Z,61.59
2019-03-11T08:29:30.722Z,61.58
2019-03-11T08:32:00.925Z,61.57
2019-03-11T08:34:31.149Z,61.55
2019-03-11T08:37:01.380Z,61.58
2019-03-11T08:39:31.581Z,61.60
2019-03-11T08:42:01.819Z,61.69
2019-03-11T08:44:32.360Z,62.03
2019-03-11T08:47:02.965Z,62.30
2019-03-11T08:49:33.252Z,62.41
2019-03-11T08:52:05.464Z,62.32
2019-03-11T08:54:35.947Z,61.97
2019-03-11T08:57:06.472Z,61.80
2019-03-11T08:59:37.100Z,61.51
2019-03-11T09:02:07.304Z,61.29
2019-03-11T09:04:37.880Z,61.09
2019-03-11T09:07:08.512Z,61.04
2019-03-11T09:09:39.159Z,61.00
2019-03-11T09:12:11.049Z,60.98
2019-03-11T09:14:41.314Z,60.99
2019-03-11T09:17:11.905Z,61.03
2019-03-11T09:19:42.173Z,61.06
2019-03-11T09:22:12.405Z,60.92
2019-03-11T09:24:42.653Z,60.79
2019-03-11T09:27:12.870Z,60.58
2019-03-11T09:29:43.085Z,60.26
2019-03-11T09:32:13.310Z,59.89
2019-03-11T09:34:43.873Z,59.76
2019-03-11T09:37:14.151Z,59.62
2019-03-11T09:39:44.379Z,59.35
2019-03-11T09:42:14.586Z,59.07
2019-03-11T09:44:44.802Z,58.77
2019-03-11T09:47:15.094Z,58.53
2019-03-11T09:49:45.656Z,58.33
2019-03-11T09:52:16.361Z,58.19
2019-03-11T09:54:46.670Z,58.02
2019-03-11T09:57:17.342Z,57.89
2019-03-11T09:59:47.619Z,57.86
2019-03-11T10:02:18.240Z,57.93
2019-03-11T10:04:49.047Z,57.90
2019-03-11T10:07:19.666Z,57.78
2019-03-11T10:09:50.306Z,57.73
2019-03-11T10:12:20.755Z,57.60
2019-03-11T10:14:50.975Z,57.49
2019-03-11T10:17:21.248Z,57.31
2019-03-11T10:19:51.473Z,57.26
2019-03-11T10:22:21.725Z,57.29
2019-03-11T10:24:51.926Z,57.17
2019-03-11T10:27:22.125Z,56.99
2019-03-11T10:29:52.379Z,56.88
2019-03-11T10:32:22.584Z,56.81
2019-03-11T10:34:54.123Z,56.71
2019-03-11T10:37:24.707Z,56.55
2019-03-11T10:39:55.318Z,56.42
2019-03-11T10:42:25.619Z,56.28
2019-03-11T10:44:57.084Z,56.14
2019-03-11T10:47:27.849Z,56.00
2019-03-11T10:49:58.146Z,55.86
2019-03-11T10:52:28.348Z,55.73
2019-03-11T10:54:58.923Z,55.62
2019-03-11T10:57:29.571Z,55.54
2019-03-11T11:00:00.377Z,55.49
2019-03-11T11:02:30.774Z,55.43
2019-03-11T11:05:02.012Z,55.34
2019-03-11T11:07:32.566Z,55.22
2019-03-11T11:10:03.534Z,55.12
2019-03-11T11:12:33.740Z,55.02
2019-03-11T11:15:09.282Z,54.94
2019-03-11T11:17:39.852Z,54.88
2019-03-11T11:20:12.965Z,54.78
2019-03-11T11:22:43.677Z,54.70
2019-03-11T11:25:25.558Z,54.59
2019-03-11T11:27:56.453Z,54.48
2019-03-11T11:30:30.064Z,54.41
2019-03-11T11:33:01.364Z,54.31
2019-03-11T11:35:31.877Z,54.23
2019-03-11T11:38:02.514Z,54.09
2019-03-11T11:40:33.229Z,54.00
2019-03-11T11:43:03.635Z,53.87
2019-03-11T11:45:34.130Z,53.81
2019-03-11T11:48:05.003Z,53.71
2019-03-11T11:50:35.259Z,53.65
2019-03-11T11:53:05.488Z,53.54
2019-03-11T11:55:36.371Z,53.45
2019-03-11T11:58:06.967Z,53.40
2019-03-11T12:00:41.537Z,53.36
2019-03-11T12:03:12.108Z,53.32
2019-03-11T12:05:42.445Z,53.25
2019-03-11T12:08:12.958Z,53.21
2019-03-11T12:10:43.224Z,53.13
2019-03-11T12:13:13.678Z,53.10
2019-03-11T12:15:43.879Z,53.04
2019-03-11T12:18:14.100Z,52.97
2019-03-11T12:20:44.314Z,52.93
2019-03-11T12:23:14.554Z,52.86
2019-03-11T12:25:44.816Z,52.74
2019-03-11T12:28:15.107Z,52.61
2019-03-11T12:30:45.667Z,52.53
2019-03-11T12:33:15.951Z,52.48
2019-03-11T12:35:46.626Z,52.40
2019-03-11T12:38:16.898Z,52.32
2019-03-11T12:40:47.470Z,52.21
2019-03-11T12:43:17.745Z,52.15
2019-03-11T12:45:48.314Z,52.07
2019-03-11T12:48:18.583Z,52.01
2019-03-11T12:50:48.804Z,51.92
2019-03-11T12:53:19.006Z,51.83
2019-03-11T12:55:49.257Z,51.78
2019-03-11T12:58:19.940Z,51.75
2019-03-11T13:00:50.315Z,51.68
2019-03-11T13:03:20.564Z,51.61
2019-03-11T13:05:50.845Z,51.53
2019-03-11T13:08:21.063Z,51.44
2019-03-11T13:10:51.317Z,51.36
2019-03-11T13:13:21.598Z,51.24
2019-03-11T13:15:52.227Z,51.16
2019-03-11T13:18:38.571Z,51.08
2019-03-11T13:21:14.676Z,50.98
2019-03-11T13:23:45.261Z,50.91
2019-03-11T13:26:15.530Z,50.87
2019-03-11T13:28:46.084Z,50.80
2019-03-11T13:31:16.716Z,50.72
2019-03-11T13:33:47.032Z,50.69
2019-03-11T13:36:18.824Z,50.62
2019-03-11T13:38:49.475Z,50.57
2019-03-11T13:41:20.113Z,50.50
2019-03-11T13:43:50.403Z,50.44
2019-03-11T13:46:20.976Z,50.37
2019-03-11T13:48:51.767Z,50.29
2019-03-11T13:51:22.013Z,50.23
2019-03-11T13:53:52.222Z,50.16
2019-03-11T13:56:22.428Z,50.12
2019-03-11T13:58:52.631Z,50.07
2019-03-11T14:01:23.181Z,50.06
2019-03-11T14:03:53.482Z,50.04
2019-03-11T14:06:23.696Z,50.01
2019-03-11T14:08:53.907Z,49.97
2019-03-11T14:11:24.494Z,49.91
2019-03-11T14:13:54.855Z,49.87
2019-03-11T14:16:25.440Z,49.77
2019-03-11T14:18:55.739Z,49.71
2019-03-11T14:21:26.262Z,49.64
2019-03-11T14:23:56.666Z,49.57
2019-03-11T14:26:28.411Z,49.52
2019-03-11T14:28:58.801Z,49.41
2019-03-11T14:31:29.379Z,49.35
2019-03-11T14:34:00.190Z,49.29
2019-03-11T14:36:30.453Z,49.18
2019-03-11T14:39:00.690Z,49.05
2019-03-11T14:41:32.958Z,48.97
2019-03-11T14:44:03.213Z,48.87
2019-03-11T14:46:33.468Z,48.77
2019-03-11T14:49:03.759Z,48.70
2019-03-11T14:51:33.960Z,48.64
2019-03-11T14:54:04.256Z,48.58
2019-03-11T14:56:34.482Z,48.53
2019-03-11T14:59:05.090Z,48.52
2019-03-11T15:01:35.338Z,48.50
2019-03-11T15:04:06.554Z,48.48
2019-03-11T15:06:36.749Z,48.47
2019-03-11T15:09:07.147Z,48.45
2019-03-11T15:11:37.913Z,48.45
2019-03-11T15:14:08.545Z,48.42
2019-03-11T15:16:39.194Z,48.43
2019-03-11T15:19:09.852Z,48.41
2019-03-11T15:21:44.785Z,48.41
2019-03-11T15:24:15.088Z,48.41
2019-03-11T15:26:45.928Z,48.43
2019-03-11T15:29:16.500Z,48.40
2019-03-11T15:31:46.977Z,48.39
2019-03-11T15:34:17.136Z,48.37
2019-03-11T15:36:47.373Z,48.39
2019-03-11T15:39:19.586Z,48.35
2019-03-11T15:41:50.907Z,48.37
2019-03-11T15:44:24.529Z,48.34
2019-03-11T15:46:56.563Z,48.33
2019-03-11T15:49:26.688Z,48.31
2019-03-11T15:51:58.368Z,48.31
2019-03-11T15:54:28.603Z,48.31
2019-03-11T15:56:59.197Z,48.31
2019-03-11T15:59:29.829Z,48.29
2019-03-11T16:02:00.107Z,48.28
2019-03-11T16:04:30.333Z,48.27
2019-03-11T16:07:00.613Z,48.26
2019-03-11T16:09:31.168Z,48.26
2019-03-11T16:12:01.540Z,48.25
2019-03-11T16:14:31.751Z,48.24
2019-03-11T16:17:02.092Z,48.24
2019-03-11T16:19:32.843Z,48.24
2019-03-11T16:22:03.068Z,48.22
2019-03-11T16:24:33.271Z,48.24
2019-03-11T16:27:03.493Z,48.24
2019-03-11T16:29:34.105Z,48.25
2019-03-11T16:32:04.451Z,48.24
2019-03-11T16:34:34.650Z,48.23
2019-03-11T16:37:04.853Z,48.24
2019-03-11T16:39:35.096Z,48.25
2019-03-11T16:42:05.299Z,48.26
2019-03-11T16:44:35.533Z,48.27
2019-03-11T16:47:06.103Z,48.27
2019-03-11T16:49:36.410Z,48.29
2019-03-11T16:52:06.622Z,48.31
2019-03-11T16:54:38.028Z,48.30
2019-03-11T16:57:08.248Z,48.31
2019-03-11T16:59:38.494Z,48.35
2019-03-11T17:02:08.754Z,48.34
2019-03-11T17:04:38.989Z,48.35
2019-03-11T17:07:09.575Z,48.39
2019-03-11T17:09:39.875Z,48.41
2019-03-11T17:12:10.193Z,48.42
2019-03-11T17:14:40.411Z,48.45
2019-03-11T17:17:11.044Z,48.49
2019-03-11T17:19:41.369Z,48.53
2019-03-11T17:22:11.938Z,48.58
2019-03-11T17:24:42.254Z,48.64
2019-03-11T17:27:12.467Z,48.66
2019-03-11T17:29:42.787Z,48.70
2019-03-11T17:32:13.011Z,48.75
2019-03-11T17:34:43.654Z,48.77
2019-03-11T17:37:15.460Z,48.85
2019-03-11T17:39:46.158Z,48.89
2019-03-11T17:42:17.222Z,48.92
2019-03-11T17:44:48.038Z,48.99
2019-03-11T17:47:18.314Z,49.03
2019-03-11T17:49:48.901Z,49.08
2019-03-11T17:52:20.543Z,49.14
2019-03-11T17:54:50.791Z,49.18
2019-03-11T17:57:21.433Z,49.21
2019-03-11T17:59:52.225Z,49.29
2019-03-11T18:02:22.688Z,49.31
2019-03-11T18:04:53.617Z,49.37
2019-03-11T18:07:25.152Z,49.41
2019-03-11T18:09:55.433Z,49.47
2019-03-11T18:12:25.798Z,49.50
2019-03-11T18:14:56.257Z,49.59
2019-03-11T18:17:26.463Z,49.62
2019-03-11T18:19:56.700Z,49.67
2019-03-11T18:22:26.912Z,49.72
2019-03-11T18:24:57.173Z,49.77
2019-03-11T18:27:27.391Z,49.80
2019-03-11T18:29:57.648Z,49.85
2019-03-11T18:32:27.870Z,49.90
2019-03-11T18:34:58.105Z,49.96
2019-03-11T18:37:28.360Z,49.99
2019-03-11T18:39:58.621Z,50.02
2019-03-11T18:42:29.225Z,50.07
2019-03-11T18:45:00.461Z,50.10
2019-03-11T18:47:31.390Z,50.16
2019-03-11T18:50:01.937Z,50.21
2019-03-11T18:52:33.308Z,50.25
2019-03-11T18:55:04.260Z,50.30
2019-03-11T18:57:34.417Z,50.33
2019-03-11T19:00:07.763Z,50.40
2019-03-11T19:02:38.535Z,50.44
2019-03-11T19:05:13.184Z,50.47
2019-03-11T19:07:45.698Z,50.54
2019-03-11T19:10:16.587Z,50.58
2019-03-11T19:12:47.274Z,50.61
2019-03-11T19:15:21.069Z,50.65
2019-03-11T19:17:51.431Z,50.70
2019-03-11T19:20:26.695Z,50.76
2019-03-11T19:22:57.437Z,50.79
2019-03-11T19:25:27.776Z,50.83
2019-03-11T19:27:57.988Z,50.87
2019-03-11T19:30:29.466Z,50.93
2019-03-11T19:33:00.346Z,50.96
2019-03-11T19:35:32.399Z,51.00
2019-03-11T19:38:02.829Z,51.04
2019-03-11T19:40:34.372Z,51.08
2019-03-11T19:43:05.150Z,51.15
2019-03-11T19:45:38.623Z,51.19
2019-03-11T19:48:11.678Z,51.21
2019-03-11T19:50:42.047Z,51.26
2019-03-11T19:53:12.774Z,51.32
2019-03-11T19:55:43.046Z,51.35
2019-03-11T19:58:13.660Z,51.39
2019-03-11T20:00:43.989Z,51.44
2019-03-11T20:03:26.458Z,51.47
2019-03-11T20:05:46.280Z,51.49
2019-03-11T20:08:16.525Z,51.54
2019-03-11T20:10:47.213Z,51.59
2019-03-11T20:13:19.277Z,51.65
2019-03-11T20:15:49.561Z,51.68
2019-03-11T20:18:19.868Z,51.71
2019-03-11T20:20:50.767Z,51.77
2019-03-11T20:23:21.865Z,51.85
2019-03-11T20:25:52.103Z,51.88
2019-03-11T20:28:22.448Z,51.92
2019-03-11T20:30:53.277Z,51.97
2019-03-11T20:33:23.421Z,52.02
2019-03-11T20:35:53.640Z,52.04
2019-03-11T20:38:24.167Z,52.11
2019-03-11T20:40:55.985Z,52.15
2019-03-11T20:43:26.328Z,52.21
2019-03-11T20:45:56.620Z,52.26
2019-03-11T20:48:26.871Z,52.31
2019-03-11T20:50:57.122Z,52.38
2019-03-11T20:53:31.211Z,52.42
2019-03-11T20:56:01.406Z,52.48
2019-03-11T20:58:32.449Z,52.51
2019-03-11T21:01:03.143Z,52.57
2019-03-11T21:03:33.536Z,52.62
2019-03-11T21:06:08.314Z,52.70
2019-03-11T21:08:40.942Z,52.73
2019-03-11T21:11:11.326Z,52.77
2019-03-11T21:13:41.508Z,52.81
2019-03-11T21:16:11.857Z,52.84
2019-03-11T21:18:42.402Z,52.89
2019-03-11T21:21:13.174Z,52.94
2019-03-11T21:23:43.456Z,53.00
2019-03-11T21:26:13.843Z,53.02
2019-03-11T21:28:44.157Z,53.07
2019-03-11T21:31:18.350Z,53.12
2019-03-11T21:33:58.018Z,53.14
2019-03-11T21:36:21.013Z,53.17
2019-03-11T21:38:51.631Z,53.22
2019-03-11T21:41:22.001Z,53.27
2019-03-11T21:43:52.350Z,53.29
2019-03-11T21:46:22.911Z,53.33
2019-03-11T21:48:53.245Z,53.40
2019-03-11T21:51:24.171Z,53.44
2019-03-11T21:53:54.737Z,53.49
2019-03-11T21:56:25.363Z,53.54
2019-03-11T21:58:56.459Z,53.59
2019-03-11T22:01:26.782Z,53.63
2019-03-11T22:03:57.164Z,53.69
2019-03-11T22:06:30.580Z,53.73
2019-03-11T22:08:59.749Z,53.77
2019-03-11T22:11:30.709Z,53.81
2019-03-11T22:14:01.025Z,53.84
2019-03-11T22:16:31.583Z,53.89
2019-03-11T22:19:02.379Z,53.91
2019-03-11T22:21:32.703Z,53.95
2019-03-11T22:24:03.034Z,54.00
2019-03-11T22:26:33.792Z,54.04
2019-03-11T22:29:04.480Z,54.07
2019-03-11T22:31:34.795Z,54.11
2019-03-11T22:34:05.009Z,54.15
2019-03-11T22:36:35.218Z,54.19
2019-03-11T22:39:07.094Z,54.21
2019-03-11T22:41:37.652Z,54.27
2019-03-11T22:44:08.296Z,54.31
2019-03-11T22:46:38.578Z,54.34
2019-03-11T22:49:09.210Z,54.38
2019-03-11T22:51:39.508Z,54.42
2019-03-11T22:54:09.717Z,54.45
2019-03-11T22:56:40.097Z,54.49
2019-03-11T22:59:10.687Z,54.52
2019-03-11T23:01:42.098Z,54.54
2019-03-11T23:04:14.198Z,54.57
2019-03-11T23:06:45.368Z,54.61
2019-03-11T23:09:16.368Z,54.64
2019-03-11T23:11:47.204Z,54.68
2019-03-11T23:14:17.462Z,54.69
2019-03-11T23:16:47.974Z,54.73
2019-03-11T23:19:19.354Z,54.77
2019-03-11T23:21:49.567Z,54.79
2019-03-11T23:24:21.371Z,54.83
2019-03-11T23:26:52.069Z,54.87
2019-03-11T23:29:22.737Z,54.92
2019-03-11T23:31:53.357Z,54.92
2019-03-11T23:34:23.743Z,54.95
2019-03-11T23:36:54.320Z,54.96
2019-03-11T23:39:24.601Z,55.00
2019-03-11T23:41:55.193Z,55.04
2019-03-11T23:44:25.486Z,55.07
2019-03-11T23:46:56.063Z,55.08
2019-03-11T23:49:26.350Z,55.09
2019-03-11T23:51:56.910Z,55.12
2019-03-11T23:54:27.210Z,55.15
2019-03-11T23:56:57.774Z,55.19
2019-03-11T23:59:28.408Z,55.20
